createdAt,value
2018-12-05T05:20:29.787Z,0.00
2018-12-05T05:21:29.758Z,0.00
2018-12-05T05:22:29.748Z,0.00
2018-12-05T05:23:29.738Z,0.00
2018-12-05T05:24:29.744Z,0.00
2018-12-05T05:25:29.718Z,0.00
2018-12-05T05:26:29.705Z,0.00
2018-12-05T05:27:29.700Z,0.00
2018-12-05T05:28:29.698Z,0.00
2018-12-05T05:29:29.702Z,0.00
2018-12-05T05:30:29.663Z,0.00
2018-12-05T05:31:29.653Z,0.00
2018-12-05T05:32:29.652Z,0.00
2018-12-05T05:33:29.634Z,0.00
2018-12-05T05:34:29.644Z,0.00
2018-12-05T05:35:29.657Z,0.00
2018-12-05T05:36:29.608Z,0.00
2018-12-05T05:37:29.587Z,0.00
2018-12-05T05:38:29.588Z,0.00
2018-12-05T05:39:29.590Z,0.00
2018-12-05T05:41:24.506Z,0.00
2018-12-05T05:42:24.496Z,0.00
2018-12-05T05:43:24.481Z,0.00
2018-12-05T05:44:24.494Z,0.00
2018-12-05T05:45:24.464Z,0.00
2018-12-05T05:46:24.450Z,0.00
2018-12-05T05:47:24.439Z,0.00
2018-12-05T05:48:24.441Z,0.00
2018-12-05T05:49:24.449Z,0.00
2018-12-05T05:50:24.411Z,0.00
2018-12-05T05:51:24.405Z,0.00
2018-12-05T05:52:24.398Z,0.00
2018-12-05T05:53:24.378Z,0.00
2018-12-05T05:54:24.384Z,0.00
2018-12-05T05:55:24.355Z,0.00
2018-12-05T05:56:24.344Z,0.00
2018-12-05T05:57:24.345Z,0.00
2018-12-05T05:58:24.335Z,0.00
2018-12-05T05:59:24.333Z,0.00
2018-12-05T06:00:24.304Z,0.00
2018-12-05T06:01:24.288Z,0.00
2018-12-05T06:02:24.283Z,0.00
2018-12-05T06:03:24.278Z,0.00
2018-12-05T06:04:24.281Z,0.00
2018-12-05T06:05:24.248Z,0.00
2018-12-05T06:06:24.242Z,0.00
2018-12-05T06:07:24.227Z,0.00
2018-12-05T06:08:24.216Z,0.00
2018-12-05T06:09:24.223Z,0.00
2018-12-05T06:10:24.201Z,0.00
2018-12-05T06:11:24.185Z,0.00
2018-12-05T06:12:24.174Z,0.00
2018-12-05T06:13:24.165Z,0.00
2018-12-05T06:14:24.188Z,0.00
2018-12-05T06:15:24.139Z,0.00
2018-12-05T06:16:24.134Z,0.00
2018-12-05T06:17:24.118Z,0.00
2018-12-05T06:18:24.113Z,0.00
2018-12-05T06:19:24.120Z,0.00
2018-12-05T06:20:24.090Z,0.00
2018-12-05T06:21:24.092Z,0.00
2018-12-05T06:22:24.077Z,0.00
2018-12-05T06:23:24.054Z,0.00
2018-12-05T06:24:24.066Z,0.00
2018-12-05T06:25:24.037Z,0.00
2018-12-05T06:26:24.021Z,0.00
2018-12-05T06:27:24.012Z,0.00
2018-12-05T06:28:24.003Z,0.00
2018-12-05T06:29:24.025Z,0.00
2018-12-05T06:30:23.985Z,0.00
2018-12-05T06:31:23.968Z,0.00
2018-12-05T06:32:23.959Z,0.00
2018-12-05T06:33:23.946Z,0.00
2018-12-05T06:34:24.016Z,0.00
2018-12-05T06:35:23.927Z,0.00
2018-12-05T06:36:23.927Z,0.00
2018-12-05T06:37:23.903Z,0.00
2018-12-05T06:38:23.894Z,0.00
2018-12-05T06:39:23.884Z,0.00
2018-12-05T06:40:23.900Z,0.00
2018-12-05T06:41:23.870Z,0.00
2018-12-05T06:42:23.857Z,4.00
2018-12-05T06:43:23.848Z,0.00
2018-12-05T06:44:23.831Z,4.00
2018-12-05T06:45:23.838Z,4.00
2018-12-05T06:46:23.810Z,0.00
2018-12-05T06:47:23.814Z,0.00
2018-12-05T06:48:23.793Z,4.00
2018-12-05T06:49:23.778Z,4.00
2018-12-05T06:50:23.783Z,4.00
2018-12-05T06:51:23.765Z,4.00
2018-12-05T06:52:23.745Z,8.00
2018-12-05T06:53:23.738Z,8.00
2018-12-05T06:54:23.735Z,8.00
2018-12-05T06:55:23.732Z,8.00
2018-12-05T06:56:23.710Z,12.00
2018-12-05T06:57:23.711Z,12.00
2018-12-05T06:58:23.682Z,16.00
2018-12-05T06:59:23.670Z,16.00
2018-12-05T07:00:23.692Z,20.00
2018-12-05T07:01:23.648Z,20.00
2018-12-05T07:02:23.637Z,20.00
2018-12-05T07:03:23.626Z,24.00
2018-12-05T07:04:23.615Z,28.00
2018-12-05T07:05:23.639Z,28.00
2018-12-05T07:06:23.595Z,32.00
2018-12-05T07:07:23.586Z,36.00
2018-12-05T07:08:23.576Z,36.00
2018-12-05T07:09:23.562Z,40.00
2018-12-05T07:10:23.571Z,48.00
2018-12-05T07:11:23.544Z,52.00
2018-12-05T07:12:23.539Z,56.00
2018-12-05T07:13:23.536Z,60.00
2018-12-05T07:14:23.525Z,64.00
2018-12-05T07:15:23.529Z,72.00
2018-12-05T07:16:23.490Z,72.00
2018-12-05T07:17:23.495Z,76.00
2018-12-05T07:18:23.469Z,80.00
2018-12-05T07:19:23.489Z,80.00
2018-12-05T07:20:23.487Z,80.00
2018-12-05T07:21:23.433Z,80.00
2018-12-05T07:22:23.423Z,84.00
2018-12-05T07:23:23.444Z,92.00
2018-12-05T07:24:23.408Z,104.00
2018-12-05T07:25:23.413Z,112.00
2018-12-05T07:26:23.381Z,124.00
2018-12-05T07:27:23.372Z,144.00
2018-12-05T07:28:23.364Z,160.00
2018-12-05T07:29:23.356Z,180.00
2018-12-05T07:30:29.442Z,196.00
2018-12-05T07:31:24.342Z,216.00
2018-12-05T07:32:23.319Z,232.00
2018-12-05T07:33:23.307Z,256.00
2018-12-05T07:34:23.310Z,284.00
2018-12-05T07:35:23.317Z,312.00
2018-12-05T07:36:23.298Z,332.00
2018-12-05T07:37:23.263Z,348.00
2018-12-05T07:38:23.254Z,352.00
2018-12-05T07:39:23.245Z,364.00
2018-12-05T07:40:23.248Z,372.00
2018-12-05T07:41:23.224Z,376.00
2018-12-05T07:42:23.226Z,388.00
2018-12-05T07:43:23.223Z,408.00
2018-12-05T07:44:23.201Z,428.00
2018-12-05T07:45:23.205Z,440.00
2018-12-05T07:46:23.176Z,460.00
2018-12-05T07:47:23.168Z,476.00
2018-12-05T07:48:23.146Z,508.00
2018-12-05T07:49:23.142Z,544.00
2018-12-05T07:50:23.155Z,576.00
2018-12-05T07:51:23.114Z,600.00
2018-12-05T07:52:23.104Z,612.00
2018-12-05T07:53:23.100Z,612.00
2018-12-05T07:54:23.085Z,600.00
2018-12-05T07:55:23.088Z,592.00
2018-12-05T07:56:23.075Z,596.00
2018-12-05T07:57:23.049Z,616.00
2018-12-05T07:58:23.044Z,660.00
2018-12-05T07:59:23.035Z,700.00
2018-12-05T08:00:23.041Z,732.00
2018-12-05T08:01:23.022Z,784.00
2018-12-05T08:02:23.006Z,828.00
2018-12-05T08:03:22.988Z,852.00
2018-12-05T08:04:22.976Z,876.00
2018-12-05T08:05:22.996Z,884.00
2018-12-05T08:06:22.953Z,900.00
2018-12-05T08:07:22.944Z,920.00
2018-12-05T08:08:22.964Z,932.00
2018-12-05T08:09:22.927Z,940.00
2018-12-05T08:10:22.934Z,912.00
2018-12-05T08:11:22.902Z,908.00
2018-12-05T08:12:22.892Z,920.00
2018-12-05T08:13:22.880Z,940.00
2018-12-05T08:14:22.876Z,968.00
2018-12-05T08:15:22.879Z,1004.00
2018-12-05T08:16:22.848Z,1036.00
2018-12-05T08:17:22.851Z,1060.00
2018-12-05T08:18:22.828Z,1040.00
2018-12-05T08:19:22.834Z,1016.00
2018-12-05T08:20:22.837Z,992.00
2018-12-05T08:21:22.796Z,988.00
2018-12-05T08:22:22.784Z,972.00
2018-12-05T08:23:22.773Z,956.00
2018-12-05T08:24:22.771Z,956.00
2018-12-05T08:25:22.830Z,992.00
2018-12-05T08:26:22.746Z,1016.00
2018-12-05T08:27:22.732Z,1036.00
2018-12-05T08:28:22.719Z,1016.00
2018-12-05T08:29:22.708Z,1000.00
2018-12-05T08:30:22.705Z,1004.00
2018-12-05T08:31:22.741Z,980.00
2018-12-05T08:32:22.689Z,980.00
2018-12-05T08:33:22.664Z,1008.00
2018-12-05T08:34:22.657Z,1056.00
2018-12-05T08:35:22.647Z,1108.00
2018-12-05T08:36:22.660Z,1148.00
2018-12-05T08:37:22.633Z,1152.00
2018-12-05T08:38:22.619Z,1128.00
2018-12-05T08:39:22.600Z,1120.00
2018-12-05T08:40:22.588Z,1144.00
2018-12-05T08:41:22.595Z,1184.00
2018-12-05T08:42:22.569Z,1212.00
2018-12-05T08:43:22.598Z,1224.00
2018-12-05T08:44:22.557Z,1232.00
2018-12-05T08:45:22.547Z,1236.00
2018-12-05T08:46:22.552Z,1220.00
2018-12-05T08:47:22.519Z,1188.00
2018-12-05T08:48:22.504Z,1180.00
2018-12-05T08:49:22.494Z,1184.00
2018-12-05T08:50:22.491Z,1176.00
2018-12-05T08:51:22.505Z,1128.00
2018-12-05T08:52:22.463Z,1064.00
2018-12-05T08:53:22.464Z,1060.00
2018-12-05T08:54:22.441Z,1100.00
2018-12-05T08:55:22.437Z,1072.00
2018-12-05T08:56:22.469Z,1108.00
2018-12-05T08:57:22.408Z,1164.00
2018-12-05T08:58:22.422Z,1236.00
2018-12-05T08:59:22.393Z,1300.00
2018-12-05T09:00:22.393Z,1352.00
2018-12-05T09:01:22.381Z,1348.00
2018-12-05T09:02:23.110Z,1360.00
2018-12-05T09:03:22.350Z,1400.00
2018-12-05T09:04:22.338Z,1440.00
2018-12-05T09:05:22.323Z,1452.00
2018-12-05T09:06:22.332Z,1480.00
2018-12-05T09:07:22.311Z,1508.00
2018-12-05T09:08:22.318Z,1536.00
2018-12-05T09:09:22.283Z,1524.00
2018-12-05T09:10:22.284Z,1488.00
2018-12-05T09:11:22.279Z,1528.00
2018-12-05T09:12:22.259Z,1584.00
2018-12-05T09:13:22.250Z,1636.00
2018-12-05T09:14:28.623Z,1676.00
2018-12-05T09:15:23.223Z,1668.00
2018-12-05T09:16:22.233Z,1668.00
2018-12-05T09:17:22.205Z,1644.00
2018-12-05T09:18:22.221Z,1664.00
2018-12-05T09:19:22.179Z,1672.00
2018-12-05T09:20:22.188Z,1688.00
2018-12-05T09:21:22.179Z,1732.00
2018-12-05T09:22:22.144Z,1720.00
2018-12-05T09:23:22.132Z,1684.00
2018-12-05T09:24:22.124Z,1648.00
2018-12-05T09:25:22.123Z,1640.00
2018-12-05T09:26:22.191Z,1636.00
2018-12-05T09:27:22.090Z,1640.00
2018-12-05T09:28:22.079Z,1648.00
2018-12-05T09:29:22.069Z,1600.00
2018-12-05T09:30:22.058Z,1564.00
2018-12-05T09:31:22.065Z,1648.00
2018-12-05T09:32:22.064Z,1732.00
2018-12-05T09:33:22.028Z,1804.00
2018-12-05T09:34:22.014Z,1836.00
2018-12-05T09:35:22.002Z,1856.00
2018-12-05T09:36:22.015Z,1896.00
2018-12-05T09:37:21.986Z,1964.00
2018-12-05T09:38:22.050Z,2004.00
2018-12-05T09:39:21.964Z,2040.00
2018-12-05T09:40:21.951Z,2084.00
2018-12-05T09:41:21.972Z,2180.00
2018-12-05T09:42:21.938Z,2224.00
2018-12-05T09:43:21.926Z,2304.00
2018-12-05T09:44:21.918Z,2340.00
2018-12-05T09:45:21.903Z,2392.00
2018-12-05T09:46:21.908Z,2464.00
2018-12-05T09:47:21.881Z,2540.00
2018-12-05T09:48:21.875Z,2620.00
2018-12-05T09:49:21.861Z,2644.00
2018-12-05T09:50:21.843Z,2580.00
2018-12-05T09:51:21.859Z,2452.00
2018-12-05T09:52:21.825Z,2428.00
2018-12-05T09:53:21.813Z,2456.00
2018-12-05T09:54:21.811Z,2436.00
2018-12-05T09:55:21.806Z,2500.00
2018-12-05T09:56:21.803Z,2656.00
2018-12-05T09:57:21.769Z,2808.00
2018-12-05T09:58:21.759Z,2876.00
2018-12-05T09:59:21.766Z,2876.00
2018-12-05T10:00:21.741Z,2836.00
2018-12-05T10:01:21.752Z,2832.00
2018-12-05T10:02:21.735Z,2840.00
2018-12-05T10:03:21.706Z,2892.00
2018-12-05T10:04:21.711Z,2952.00
2018-12-05T10:05:21.698Z,2920.00
2018-12-05T10:06:21.728Z,2920.00
2018-12-05T10:07:21.664Z,3104.00
2018-12-05T10:08:21.663Z,3264.00
2018-12-05T10:09:21.645Z,3380.00
2018-12-05T10:10:21.634Z,3344.00
2018-12-05T10:11:21.661Z,3352.00
2018-12-05T10:12:21.620Z,3384.00
2018-12-05T10:13:21.617Z,3472.00
2018-12-05T10:14:21.609Z,3516.00
2018-12-05T10:15:21.582Z,3500.00
2018-12-05T10:16:21.603Z,3256.00
2018-12-05T10:17:21.562Z,3068.00
2018-12-05T10:18:21.588Z,2908.00
2018-12-05T10:19:21.562Z,2760.00
2018-12-05T10:20:21.584Z,2628.00
2018-12-05T10:21:21.532Z,2504.00
2018-12-05T10:22:21.529Z,2480.00
2018-12-05T10:23:21.503Z,2524.00
2018-12-05T10:24:21.535Z,2676.00
2018-12-05T10:25:21.478Z,2784.00
2018-12-05T10:26:21.506Z,3032.00
2018-12-05T10:27:21.493Z,3304.00
2018-12-05T10:28:21.449Z,3364.00
2018-12-05T10:29:21.438Z,3336.00
2018-12-05T10:30:21.447Z,3120.00
2018-12-05T10:31:21.421Z,2852.00
2018-12-05T10:32:21.427Z,2464.00
2018-12-05T10:33:21.399Z,2056.00
2018-12-05T10:34:22.225Z,1736.00
2018-12-05T10:35:21.378Z,1604.00
2018-12-05T10:36:21.395Z,1572.00
2018-12-05T10:37:21.398Z,1592.00
2018-12-05T10:38:21.372Z,1524.00
2018-12-05T10:39:21.363Z,1548.00
2018-12-05T10:40:21.323Z,1616.00
2018-12-05T10:41:21.329Z,1620.00
2018-12-05T10:42:21.332Z,1664.00
2018-12-05T10:43:21.309Z,1736.00
2018-12-05T10:44:21.313Z,1824.00
2018-12-05T10:45:21.275Z,1956.00
2018-12-05T10:46:21.261Z,2068.00
2018-12-05T10:47:21.269Z,2256.00
2018-12-05T10:48:21.240Z,2452.00
2018-12-05T10:49:21.232Z,2516.00
2018-12-05T10:50:21.230Z,2436.00
2018-12-05T10:51:21.377Z,2276.00
2018-12-05T10:52:21.217Z,2188.00
2018-12-05T10:53:21.188Z,2252.00
2018-12-05T10:54:21.178Z,2280.00
2018-12-05T10:55:21.189Z,2284.00
2018-12-05T10:56:21.211Z,2164.00
2018-12-05T10:57:21.197Z,2000.00
2018-12-05T10:58:21.157Z,1912.00
2018-12-05T10:59:21.724Z,1784.00
2018-12-05T11:00:21.129Z,1724.00
2018-12-05T11:01:21.143Z,1708.00
2018-12-05T11:02:21.726Z,1636.00
2018-12-05T11:03:21.084Z,1564.00
2018-12-05T11:04:21.081Z,1616.00
2018-12-05T11:05:21.067Z,1716.00
2018-12-05T11:06:21.057Z,1820.00
2018-12-05T11:07:21.059Z,1908.00
2018-12-05T11:08:21.036Z,1952.00
2018-12-05T11:09:21.020Z,1912.00
2018-12-05T11:10:21.012Z,1880.00
2018-12-05T11:11:21.022Z,1796.00
2018-12-05T11:12:21.009Z,1808.00
2018-12-05T11:13:20.987Z,1804.00
2018-12-05T11:14:21.723Z,1916.00
2018-12-05T11:15:20.996Z,2056.00
2018-12-05T11:16:20.981Z,2088.00
2018-12-05T11:17:21.003Z,2104.00
2018-12-05T11:18:20.990Z,2316.00
2018-12-05T11:19:20.918Z,2460.00
2018-12-05T11:20:20.915Z,2424.00
2018-12-05T11:21:20.915Z,2424.00
2018-12-05T11:22:20.886Z,2684.00
2018-12-05T11:23:20.892Z,3084.00
2018-12-05T11:24:20.873Z,3336.00
2018-12-05T11:25:20.917Z,3088.00
2018-12-05T11:26:20.851Z,2732.00
2018-12-05T11:27:20.962Z,2560.00
2018-12-05T11:28:20.924Z,2536.00
2018-12-05T11:29:20.818Z,2768.00
2018-12-05T11:30:20.817Z,3020.00
2018-12-05T11:31:20.792Z,3180.00
2018-12-05T11:32:20.790Z,3376.00
2018-12-05T11:33:20.811Z,3500.00
2018-12-05T11:34:20.771Z,3584.00
2018-12-05T11:35:20.751Z,3592.00
2018-12-05T11:36:20.744Z,3536.00
2018-12-05T11:37:20.739Z,3332.00
2018-12-05T11:38:20.761Z,3072.00
2018-12-05T11:39:20.722Z,2836.00
2018-12-05T11:40:20.730Z,2720.00
2018-12-05T11:41:21.222Z,2600.00
2018-12-05T11:42:20.711Z,2536.00
2018-12-05T11:43:20.717Z,2532.00
2018-12-05T11:44:20.666Z,2528.00
2018-12-05T11:45:20.657Z,2472.00
2018-12-05T11:46:20.637Z,2388.00
2018-12-05T11:47:20.651Z,2372.00
2018-12-05T11:48:20.640Z,2436.00
2018-12-05T11:49:20.608Z,2532.00
2018-12-05T11:50:20.599Z,2584.00
2018-12-05T11:51:20.591Z,2628.00
2018-12-05T11:52:20.578Z,2624.00
2018-12-05T11:53:20.603Z,2652.00
2018-12-05T11:54:20.573Z,2716.00
2018-12-05T11:55:20.547Z,2724.00
2018-12-05T11:56:20.535Z,2664.00
2018-12-05T11:57:20.530Z,2612.00
2018-12-05T11:58:20.538Z,2652.00
2018-12-05T11:59:20.534Z,2684.00
2018-12-05T12:00:20.524Z,2656.00
2018-12-05T12:01:20.483Z,2604.00
2018-12-05T12:02:22.394Z,2596.00
2018-12-05T12:03:20.760Z,2620.00
2018-12-05T12:04:21.261Z,2636.00
2018-12-05T12:05:20.494Z,2572.00
2018-12-05T12:06:20.486Z,2504.00
2018-12-05T12:07:20.522Z,2412.00
2018-12-05T12:08:20.495Z,2364.00
2018-12-05T12:09:20.459Z,2328.00
2018-12-05T12:10:20.394Z,2332.00
2018-12-05T12:11:20.381Z,2380.00
2018-12-05T12:12:20.373Z,2408.00
2018-12-05T12:13:20.364Z,2424.00
2018-12-05T12:14:20.374Z,2500.00
2018-12-05T12:15:20.346Z,2628.00
2018-12-05T12:16:20.351Z,2804.00
2018-12-05T12:17:20.323Z,2964.00
2018-12-05T12:18:20.328Z,3068.00
2018-12-05T12:19:20.300Z,3128.00
2018-12-05T12:20:20.291Z,3080.00
2018-12-05T12:21:20.281Z,3040.00
2018-12-05T12:22:20.297Z,3088.00
2018-12-05T12:23:20.296Z,3148.00
2018-12-05T12:24:20.247Z,3224.00
2018-12-05T12:25:20.238Z,3332.00
2018-12-05T12:26:20.235Z,3416.00
2018-12-05T12:27:20.224Z,3492.00
2018-12-05T12:28:20.238Z,3524.00
2018-12-05T12:29:20.198Z,3600.00
2018-12-05T12:30:20.185Z,3764.00
2018-12-05T12:31:20.178Z,4028.00
2018-12-05T12:32:20.170Z,4468.00
2018-12-05T12:33:20.178Z,4844.00
2018-12-05T12:34:20.159Z,5028.00
2018-12-05T12:35:20.142Z,5344.00
2018-12-05T12:36:20.129Z,5556.00
2018-12-05T12:37:20.129Z,5588.00
2018-12-05T12:38:20.120Z,5596.00
2018-12-05T12:39:20.089Z,5480.00
2018-12-05T12:40:20.081Z,5368.00
2018-12-05T12:41:20.071Z,5112.00
2018-12-05T12:42:20.059Z,4504.00
2018-12-05T12:43:20.112Z,3940.00
2018-12-05T12:44:20.048Z,3736.00
2018-12-05T12:45:20.233Z,3860.00
2018-12-05T12:46:20.015Z,4024.00
2018-12-05T12:47:20.003Z,4164.00
2018-12-05T12:48:19.992Z,4156.00
2018-12-05T12:49:20.017Z,4124.00
2018-12-05T12:50:19.971Z,4132.00
2018-12-05T12:51:19.961Z,3952.00
2018-12-05T12:52:19.949Z,4032.00
2018-12-05T12:53:19.938Z,4188.00
2018-12-05T12:54:19.947Z,4468.00
2018-12-05T12:55:19.934Z,4824.00
2018-12-05T12:56:19.912Z,4980.00
2018-12-05T12:57:19.896Z,5136.00
2018-12-05T12:58:19.885Z,5356.00
2018-12-05T12:59:19.890Z,5448.00
2018-12-05T13:00:19.862Z,5340.00
2018-12-05T13:01:19.856Z,5352.00
2018-12-05T13:02:19.846Z,5296.00
2018-12-05T13:03:19.842Z,5248.00
2018-12-05T13:04:19.850Z,5168.00
2018-12-05T13:05:19.821Z,4988.00
2018-12-05T13:06:19.812Z,4868.00
2018-12-05T13:07:19.818Z,4748.00
2018-12-05T13:08:19.784Z,4464.00
2018-12-05T13:09:19.791Z,4068.00
2018-12-05T13:10:19.757Z,3624.00
2018-12-05T13:11:19.745Z,3592.00
2018-12-05T13:12:19.771Z,3484.00
2018-12-05T13:13:19.730Z,3508.00
2018-12-05T13:14:19.734Z,3252.00
2018-12-05T13:15:19.725Z,3020.00
2018-12-05T13:16:19.691Z,2896.00
2018-12-05T13:17:19.682Z,2864.00
2018-12-05T13:18:19.870Z,2768.00
2018-12-05T13:19:19.682Z,2556.00
2018-12-05T13:20:19.652Z,2384.00
2018-12-05T13:21:19.650Z,2352.00
2018-12-05T13:22:19.627Z,2436.00
2018-12-05T13:23:19.617Z,2556.00
2018-12-05T13:24:19.669Z,2652.00
2018-12-05T13:25:19.599Z,2680.00
2018-12-05T13:26:19.584Z,2652.00
2018-12-05T13:27:19.575Z,2528.00
2018-12-05T13:28:19.622Z,2360.00
2018-12-05T13:29:19.570Z,2200.00
2018-12-05T13:30:19.542Z,2088.00
2018-12-05T13:31:19.540Z,1988.00
2018-12-05T13:32:19.519Z,1928.00
2018-12-05T13:33:19.517Z,1964.00
2018-12-05T13:34:19.524Z,1968.00
2018-12-05T13:35:19.487Z,1956.00
2018-12-05T13:36:19.482Z,1924.00
2018-12-05T13:37:19.472Z,1908.00
2018-12-05T13:38:19.462Z,1844.00
2018-12-05T13:39:19.481Z,1800.00
2018-12-05T13:40:19.435Z,1736.00
2018-12-05T13:41:19.424Z,1664.00
2018-12-05T13:42:19.412Z,1620.00
2018-12-05T13:43:19.402Z,1680.00
2018-12-05T13:44:19.408Z,1716.00
2018-12-05T13:45:19.398Z,1796.00
2018-12-05T13:46:19.367Z,1852.00
2018-12-05T13:47:19.373Z,1920.00
2018-12-05T13:48:19.349Z,2032.00
2018-12-05T13:49:19.351Z,2148.00
2018-12-05T13:50:19.327Z,2260.00
2018-12-05T13:51:19.325Z,2376.00
2018-12-05T13:52:19.309Z,2500.00
2018-12-05T13:53:19.293Z,2612.00
2018-12-05T13:54:19.316Z,2652.00
2018-12-05T13:55:19.270Z,2628.00
2018-12-05T13:56:19.259Z,2648.00
2018-12-05T13:57:19.258Z,2628.00
2018-12-05T13:58:19.245Z,2528.00
2018-12-05T13:59:19.248Z,2348.00
2018-12-05T14:00:19.218Z,2160.00
2018-12-05T14:01:19.204Z,1992.00
2018-12-05T14:02:19.195Z,1812.00
2018-12-05T14:03:19.194Z,1632.00
2018-12-05T14:04:19.197Z,1480.00
2018-12-05T14:05:19.162Z,1348.00
2018-12-05T14:06:19.168Z,1264.00
2018-12-05T14:07:19.176Z,1220.00
2018-12-05T14:08:19.128Z,1192.00
2018-12-05T14:09:19.138Z,1144.00
2018-12-05T14:10:19.121Z,1088.00
2018-12-05T14:11:19.101Z,1044.00
2018-12-05T14:12:19.085Z,1020.00
2018-12-05T14:13:19.095Z,1008.00
2018-12-05T14:14:19.088Z,996.00
2018-12-05T14:15:19.067Z,976.00
2018-12-05T14:16:19.046Z,952.00
2018-12-05T14:17:19.033Z,928.00
2018-12-05T14:18:19.023Z,904.00
2018-12-05T14:19:19.031Z,884.00
2018-12-05T14:20:19.002Z,876.00
2018-12-05T14:21:19.004Z,848.00
2018-12-05T14:22:18.984Z,792.00
2018-12-05T14:23:18.969Z,744.00
2018-12-05T14:24:18.987Z,700.00
2018-12-05T14:25:18.953Z,664.00
2018-12-05T14:26:18.940Z,636.00
2018-12-05T14:27:18.946Z,604.00
2018-12-05T14:28:18.922Z,580.00
2018-12-05T14:29:18.922Z,556.00
2018-12-05T14:30:18.897Z,544.00
2018-12-05T14:31:18.888Z,532.00
2018-12-05T14:32:18.876Z,512.00
2018-12-05T14:33:18.890Z,496.00
2018-12-05T14:34:18.877Z,480.00
2018-12-05T14:35:18.843Z,460.00
2018-12-05T14:36:18.833Z,436.00
2018-12-05T14:37:18.822Z,420.00
2018-12-05T14:38:18.816Z,400.00
2018-12-05T14:39:18.823Z,388.00
2018-12-05T14:40:18.807Z,380.00
2018-12-05T14:41:18.779Z,368.00
2018-12-05T14:42:18.770Z,364.00
2018-12-05T14:43:18.758Z,356.00
2018-12-05T14:44:18.753Z,356.00
2018-12-05T14:45:18.777Z,352.00
2018-12-05T14:46:18.731Z,344.00
2018-12-05T14:47:18.724Z,332.00
2018-12-05T14:48:18.708Z,316.00
2018-12-05T14:49:18.699Z,304.00
2018-12-05T14:50:18.704Z,284.00
2018-12-05T14:51:18.686Z,268.00
2018-12-05T14:52:18.666Z,252.00
2018-12-05T14:53:18.665Z,240.00
2018-12-05T14:54:18.646Z,228.00
2018-12-05T14:55:18.653Z,224.00
2018-12-05T14:56:18.636Z,228.00
2018-12-05T14:57:18.619Z,228.00
2018-12-05T14:58:18.603Z,232.00
2018-12-05T14:59:18.597Z,232.00
2018-12-05T15:00:18.604Z,228.00
2018-12-05T15:01:18.571Z,220.00
2018-12-05T15:02:18.560Z,216.00
2018-12-05T15:03:18.567Z,208.00
2018-12-05T15:04:18.545Z,204.00
2018-12-05T15:05:18.548Z,192.00
2018-12-05T15:06:18.542Z,184.00
2018-12-05T15:07:18.508Z,172.00
2018-12-05T15:08:18.500Z,156.00
2018-12-05T15:09:18.488Z,148.00
2018-12-05T15:10:18.504Z,132.00
2018-12-05T15:11:18.469Z,128.00
2018-12-05T15:12:18.483Z,116.00
2018-12-05T15:13:18.452Z,112.00
2018-12-05T15:14:18.451Z,104.00
2018-12-05T15:15:18.448Z,100.00
2018-12-05T15:16:18.414Z,92.00
2018-12-05T15:17:18.408Z,88.00
2018-12-05T15:18:18.392Z,84.00
2018-12-05T15:19:18.383Z,80.00
2018-12-05T15:20:18.401Z,72.00
2018-12-05T15:21:18.375Z,64.00
2018-12-05T15:22:18.356Z,60.00
2018-12-05T15:23:18.346Z,52.00
2018-12-05T15:24:18.350Z,48.00
2018-12-05T15:25:18.351Z,44.00
2018-12-05T15:26:18.313Z,40.00
2018-12-05T15:27:18.310Z,36.00
2018-12-05T15:28:18.290Z,32.00
2018-12-05T15:29:18.280Z,28.00
2018-12-05T15:30:18.299Z,32.00
2018-12-05T15:31:18.263Z,28.00
2018-12-05T15:32:18.252Z,28.00
2018-12-05T15:33:18.241Z,28.00
2018-12-05T15:34:18.261Z,20.00
2018-12-05T15:35:18.237Z,20.00
2018-12-05T15:36:18.211Z,16.00
2018-12-05T15:37:18.199Z,16.00
2018-12-05T15:38:18.230Z,16.00
2018-12-05T15:39:18.170Z,12.00
2018-12-05T15:40:18.176Z,8.00
2018-12-05T15:41:18.164Z,8.00
2018-12-05T15:42:18.144Z,4.00
2018-12-05T15:43:18.128Z,8.00
2018-12-05T15:44:18.121Z,4.00
2018-12-05T15:45:21.562Z,4.00
2018-12-05T15:46:18.097Z,4.00
2018-12-05T15:47:18.106Z,4.00
2018-12-05T15:48:18.082Z,4.00
2018-12-05T15:49:18.065Z,0.00
2018-12-05T15:50:18.190Z,4.00
2018-12-05T15:51:18.044Z,4.00
2018-12-05T15:52:18.108Z,4.00
2018-12-05T15:53:18.030Z,0.00
2018-12-05T15:54:18.039Z,0.00
2018-12-05T15:55:18.020Z,0.00
2018-12-05T15:56:17.995Z,0.00
2018-12-05T15:57:17.984Z,0.00
2018-12-05T15:58:17.970Z,0.00
2018-12-05T15:59:17.963Z,0.00
2018-12-05T16:00:17.975Z,0.00
2018-12-05T16:01:17.966Z,0.00
2018-12-05T16:02:17.932Z,0.00
2018-12-05T16:03:17.921Z,0.00
2018-12-05T16:04:17.912Z,0.00
2018-12-05T16:05:17.911Z,0.00
2018-12-05T16:06:17.887Z,0.00
2018-12-05T16:07:17.876Z,0.00
2018-12-05T16:08:17.884Z,0.00
2018-12-05T16:09:17.853Z,0.00
2018-12-05T16:10:17.865Z,0.00
2018-12-05T16:11:17.839Z,0.00
2018-12-05T16:12:17.822Z,0.00
2018-12-05T16:13:17.813Z,0.00
2018-12-05T16:14:17.859Z,0.00
2018-12-05T16:15:17.810Z,0.00
2018-12-05T16:16:17.780Z,0.00
2018-12-05T16:17:17.770Z,0.00
2018-12-05T16:18:17.766Z,0.00
2018-12-05T16:19:17.749Z,0.00
2018-12-05T16:20:17.804Z,0.00
2018-12-05T16:21:17.744Z,0.00
2018-12-05T16:22:17.717Z,0.00
2018-12-05T16:23:17.708Z,0.00
2018-12-05T16:24:17.702Z,0.00
2018-12-05T16:25:17.714Z,0.00
2018-12-05T16:26:17.689Z,0.00
2018-12-05T16:27:17.677Z,0.00
2018-12-05T16:28:17.657Z,0.00
2018-12-05T16:29:17.646Z,0.00
2018-12-05T16:30:17.636Z,0.00
2018-12-05T16:31:17.648Z,0.00
2018-12-05T16:32:17.630Z,0.00
2018-12-05T16:33:17.616Z,0.00
2018-12-05T16:34:17.594Z,0.00
2018-12-05T16:35:17.586Z,0.00
2018-12-05T16:36:17.594Z,0.00
2018-12-05T16:37:17.565Z,0.00
2018-12-05T16:38:17.553Z,0.00
2018-12-05T16:39:17.557Z,0.00
2018-12-05T16:40:17.538Z,0.00
2018-12-05T16:41:17.541Z,0.00
2018-12-05T16:42:17.512Z,0.00
2018-12-05T16:43:17.500Z,0.00
2018-12-05T16:44:17.490Z,0.00
2018-12-05T16:45:17.487Z,0.00
2018-12-05T16:46:17.502Z,0.00
2018-12-05T16:47:17.464Z,0.00
2018-12-05T16:48:17.449Z,0.00
2018-12-05T16:49:17.442Z,0.00
2018-12-05T16:50:17.434Z,0.00
2018-12-05T16:51:17.443Z,0.00
2018-12-05T16:52:17.410Z,0.00
2018-12-05T16:53:17.415Z,0.00
2018-12-05T16:54:17.390Z,0.00
2018-12-05T16:55:17.384Z,0.00
2018-12-05T16:56:17.392Z,0.00
2018-12-05T16:57:17.357Z,0.00
2018-12-05T16:58:17.349Z,0.00
2018-12-05T16:59:17.354Z,0.00
2018-12-05T17:00:17.326Z,0.00
2018-12-05T17:01:17.336Z,0.00
2018-12-05T17:02:17.306Z,0.00
2018-12-05T17:03:17.297Z,0.00
2018-12-05T17:04:17.288Z,0.00
2018-12-05T17:05:17.281Z,0.00
2018-12-05T17:06:17.294Z,0.00
2018-12-05T17:07:17.254Z,0.00
2018-12-05T17:08:17.247Z,0.00
2018-12-05T17:09:17.238Z,0.00
2018-12-05T17:10:17.231Z,0.00
2018-12-05T17:11:17.232Z,0.00
2018-12-05T17:12:17.204Z,0.00
2018-12-05T17:13:17.196Z,0.00
2018-12-05T17:14:17.202Z,0.00
2018-12-05T17:15:17.193Z,0.00
2018-12-05T17:16:18.164Z,0.00
2018-12-05T17:17:17.157Z,0.00
2018-12-05T17:18:17.155Z,0.00
2018-12-05T17:19:17.130Z,0.00
2018-12-05T17:20:17.120Z,0.00
2018-12-05T17:21:17.140Z,0.00
2018-12-05T17:22:17.114Z,0.00
2018-12-05T17:23:17.091Z,0.00
2018-12-05T17:24:17.080Z,0.00
2018-12-05T17:25:17.068Z,0.00
2018-12-05T17:26:17.083Z,0.00
2018-12-05T17:27:17.864Z,0.00
2018-12-05T17:28:17.038Z,0.00
2018-12-05T17:29:17.026Z,0.00
2018-12-05T17:30:17.023Z,0.00
2018-12-05T17:31:18.458Z,0.00
2018-12-05T17:32:16.995Z,0.00
2018-12-05T17:33:16.992Z,0.00
2018-12-05T17:34:17.047Z,0.00
2018-12-05T17:35:16.966Z,0.00
2018-12-05T17:36:16.976Z,0.00
2018-12-05T17:37:16.948Z,0.00
2018-12-05T17:38:16.940Z,0.00
2018-12-05T17:39:16.926Z,0.00
2018-12-05T17:40:16.921Z,0.00
2018-12-05T17:41:16.940Z,0.00
2018-12-05T17:42:16.899Z,0.00
2018-12-05T17:43:16.885Z,0.00
2018-12-05T17:44:16.879Z,0.00
2018-12-05T17:45:16.866Z,0.00
2018-12-05T17:46:16.876Z,0.00
2018-12-05T17:47:16.841Z,0.00
2018-12-05T17:48:16.836Z,0.00
2018-12-05T17:49:16.824Z,0.00
2018-12-05T17:50:16.840Z,0.00
2018-12-05T17:51:16.820Z,0.00
2018-12-05T17:52:16.792Z,0.00
2018-12-05T17:53:16.862Z,0.00
2018-12-05T17:54:16.787Z,0.00